createdAt,value
2017-03-30T00:00:26.480Z,79.00
2017-03-30T00:01:25.896Z,79.10
2017-03-30T00:02:25.313Z,79.00
2017-03-30T00:03:25.708Z,79.10
2017-03-30T00:04:25.009Z,78.70
2017-03-30T00:05:24.429Z,78.60
2017-03-30T00:06:23.861Z,78.80
2017-03-30T00:07:23.179Z,78.90
2017-03-30T00:08:22.537Z,78.90
2017-03-30T00:09:22.255Z,78.90
2017-03-30T00:10:21.679Z,78.90
2017-03-30T00:11:21.058Z,79.00
2017-03-30T00:12:20.432Z,78.90
2017-03-30T00:13:19.798Z,78.90
2017-03-30T00:14:19.120Z,78.70
2017-03-30T00:15:19.298Z,78.70
2017-03-30T00:16:18.645Z,78.70
2017-03-30T00:17:17.983Z,79.30
2017-03-30T00:18:17.428Z,79.70
2017-03-30T00:19:17.511Z,79.60
2017-03-30T00:20:16.977Z,79.70
2017-03-30T00:21:16.831Z,79.80
2017-03-30T00:22:16.228Z,79.90
2017-03-30T00:23:15.535Z,80.30
2017-03-30T00:24:15.632Z,80.60
2017-03-30T00:25:14.975Z,80.80
2017-03-30T00:26:14.335Z,81.20
2017-03-30T00:27:13.711Z,81.40
2017-03-30T00:28:13.136Z,81.60
2017-03-30T00:29:12.524Z,81.80
2017-03-30T00:30:11.980Z,81.60
2017-03-30T00:31:11.364Z,81.50
2017-03-30T00:32:10.932Z,81.40
2017-03-30T00:33:10.345Z,81.20
2017-03-30T00:34:09.708Z,81.20
2017-03-30T00:35:09.056Z,81.30
2017-03-30T00:36:08.427Z,81.20
2017-03-30T00:37:07.736Z,81.20
2017-03-30T00:38:07.090Z,81.10
2017-03-30T00:39:06.645Z,81.20
2017-03-30T00:40:05.981Z,80.90
2017-03-30T00:41:05.302Z,81.10
2017-03-30T00:42:04.736Z,81.40
2017-03-30T00:43:04.085Z,81.70
2017-03-30T00:44:03.471Z,81.80
2017-03-30T00:45:02.823Z,82.70
2017-03-30T00:46:02.135Z,83.40
2017-03-30T00:47:01.496Z,83.90
2017-03-30T00:48:01.009Z,83.90
2017-03-30T00:49:00.384Z,83.40
2017-03-30T00:49:59.687Z,83.40
2017-03-30T00:50:59.109Z,83.30
2017-03-30T00:51:58.452Z,83.30
2017-03-30T00:52:57.793Z,83.20
2017-03-30T00:53:57.087Z,83.20
2017-03-30T00:54:56.439Z,83.80
2017-03-30T00:55:55.814Z,84.20
2017-03-30T00:56:55.416Z,84.40
2017-03-30T00:57:54.762Z,84.50
2017-03-30T00:58:54.124Z,84.50
2017-03-30T00:59:53.564Z,84.50
2017-03-30T01:00:52.950Z,84.80
2017-03-30T01:01:52.333Z,84.90
2017-03-30T01:02:51.756Z,85.00
2017-03-30T01:03:51.184Z,84.90
2017-03-30T01:04:50.612Z,85.00
2017-03-30T01:05:50.824Z,85.30
2017-03-30T01:06:53.142Z,85.30
2017-03-30T01:07:52.531Z,85.60
2017-03-30T01:08:51.938Z,85.80
2017-03-30T01:09:51.388Z,86.00
2017-03-30T01:10:50.809Z,86.10
2017-03-30T01:11:50.198Z,86.20
2017-03-30T01:12:49.657Z,86.20
2017-03-30T01:13:49.345Z,86.20
2017-03-30T01:14:48.717Z,86.30
2017-03-30T01:15:48.065Z,86.50
2017-03-30T01:16:47.465Z,86.50
2017-03-30T01:17:46.895Z,86.60
2017-03-30T01:18:46.284Z,86.70
2017-03-30T01:19:45.727Z,87.70
2017-03-30T01:20:45.087Z,87.20
2017-03-30T01:21:44.406Z,87.30
2017-03-30T01:22:43.733Z,87.50
2017-03-30T01:23:43.046Z,87.70
2017-03-30T01:24:42.397Z,88.00
2017-03-30T01:25:42.509Z,87.90
2017-03-30T01:26:41.872Z,87.90
2017-03-30T01:27:41.222Z,87.90
2017-03-30T01:28:40.549Z,87.90
2017-03-30T01:29:39.946Z,88.00
2017-03-30T01:30:39.301Z,88.10
2017-03-30T01:31:38.725Z,88.20
2017-03-30T01:32:38.032Z,88.20
2017-03-30T01:33:37.368Z,88.50
2017-03-30T01:34:36.746Z,88.60
2017-03-30T01:35:36.077Z,88.60
2017-03-30T01:36:35.465Z,88.50
2017-03-30T01:37:35.100Z,88.70
2017-03-30T01:38:34.445Z,88.60
2017-03-30T01:39:34.317Z,88.60
2017-03-30T01:40:33.793Z,88.50
2017-03-30T01:41:33.112Z,88.50
2017-03-30T01:42:32.525Z,88.50
2017-03-30T01:43:31.892Z,88.40
2017-03-30T01:44:31.269Z,88.40
2017-03-30T01:45:30.675Z,88.60
2017-03-30T01:46:30.047Z,89.10
2017-03-30T01:47:29.432Z,88.20
2017-03-30T01:48:28.852Z,88.10
2017-03-30T01:49:28.256Z,88.10
2017-03-30T01:50:27.550Z,87.90
2017-03-30T01:51:26.881Z,87.80
2017-03-30T01:52:27.009Z,87.90
2017-03-30T01:53:26.434Z,87.90
2017-03-30T01:54:25.815Z,88.00
2017-03-30T01:55:25.550Z,88.10
2017-03-30T01:56:24.866Z,88.10
2017-03-30T01:57:24.230Z,88.30
2017-03-30T01:58:23.534Z,88.70
2017-03-30T01:59:22.857Z,89.00
2017-03-30T02:00:22.313Z,89.20
2017-03-30T02:01:21.770Z,89.00
2017-03-30T02:02:21.149Z,89.00
2017-03-30T02:03:21.102Z,88.90
2017-03-30T02:04:21.202Z,88.80
2017-03-30T02:05:20.579Z,89.00
2017-03-30T02:06:19.992Z,89.20
2017-03-30T02:07:19.393Z,89.20
2017-03-30T02:08:18.773Z,89.60
2017-03-30T02:09:18.244Z,89.80
2017-03-30T02:10:17.585Z,89.80
2017-03-30T02:11:16.898Z,89.90
2017-03-30T02:12:17.009Z,89.50
2017-03-30T02:13:16.719Z,89.30
2017-03-30T02:14:16.040Z,89.30
2017-03-30T02:15:15.390Z,89.20
2017-03-30T02:16:14.681Z,89.50
2017-03-30T02:17:13.953Z,89.60
2017-03-30T02:18:14.115Z,89.60
2017-03-30T02:19:13.498Z,89.70
2017-03-30T02:20:12.867Z,89.70
2017-03-30T02:21:12.240Z,89.70
2017-03-30T02:22:11.678Z,89.80
2017-03-30T02:23:11.142Z,89.80
2017-03-30T02:24:10.587Z,89.80
2017-03-30T02:25:10.025Z,90.00
2017-03-30T02:26:09.393Z,89.90
2017-03-30T02:27:08.733Z,90.00
2017-03-30T02:28:08.082Z,90.00
2017-03-30T02:29:08.157Z,90.10
2017-03-30T02:30:07.669Z,90.30
2017-03-30T02:31:07.377Z,90.10
2017-03-30T02:32:06.714Z,90.30
2017-03-30T02:33:06.107Z,90.30
2017-03-30T02:34:05.441Z,90.40
2017-03-30T02:35:04.888Z,90.30
2017-03-30T02:36:04.275Z,90.50
2017-03-30T02:37:04.406Z,90.50
2017-03-30T02:38:03.786Z,90.50
2017-03-30T02:39:03.209Z,90.50
2017-03-30T02:40:03.286Z,90.50
2017-03-30T02:41:02.612Z,90.50
2017-03-30T02:42:02.009Z,90.50
2017-03-30T02:43:01.582Z,90.50
2017-03-30T02:44:00.942Z,90.50
2017-03-30T02:45:00.314Z,90.50
2017-03-30T02:45:59.678Z,90.50
2017-03-30T02:46:58.987Z,90.50
2017-03-30T02:47:58.307Z,90.50
2017-03-30T02:48:57.912Z,90.50
2017-03-30T02:49:57.266Z,90.50
2017-03-30T02:50:57.311Z,90.50
2017-03-30T02:51:56.662Z,90.50
2017-03-30T02:52:56.057Z,90.50
2017-03-30T02:53:55.378Z,90.50
2017-03-30T02:54:54.736Z,90.50
2017-03-30T02:55:54.917Z,90.70
2017-03-30T02:56:55.014Z,90.80
2017-03-30T02:57:54.511Z,90.90
2017-03-30T02:58:53.907Z,90.90
2017-03-30T02:59:53.268Z,91.00
2017-03-30T03:00:52.681Z,91.00
2017-03-30T03:01:52.002Z,90.90
2017-03-30T03:02:51.379Z,90.80
2017-03-30T03:03:51.411Z,90.70
2017-03-30T03:04:50.693Z,90.80
2017-03-30T03:05:49.997Z,90.80
2017-03-30T03:06:49.957Z,90.80
2017-03-30T03:07:49.258Z,90.90
2017-03-30T03:08:49.301Z,91.10
2017-03-30T03:09:48.651Z,91.10
2017-03-30T03:10:47.958Z,91.20
2017-03-30T03:11:47.287Z,91.10
2017-03-30T03:12:46.896Z,91.10
2017-03-30T03:13:46.220Z,91.00
2017-03-30T03:14:45.525Z,90.90
2017-03-30T03:15:44.830Z,90.90
2017-03-30T03:16:44.141Z,90.90
2017-03-30T03:17:43.448Z,90.90
2017-03-30T03:18:42.890Z,91.00
2017-03-30T03:19:42.639Z,91.00
2017-03-30T03:20:41.998Z,91.10
2017-03-30T03:21:41.455Z,91.20
2017-03-30T03:22:40.838Z,91.30
2017-03-30T03:23:40.193Z,91.10
2017-03-30T03:24:39.816Z,91.10
2017-03-30T03:25:39.138Z,91.10
2017-03-30T03:26:38.453Z,91.20
2017-03-30T03:27:37.844Z,91.20
2017-03-30T03:28:37.307Z,91.20
2017-03-30T03:29:36.664Z,91.20
2017-03-30T03:30:36.114Z,91.20
2017-03-30T03:31:35.449Z,91.10
2017-03-30T03:32:34.806Z,91.20
2017-03-30T03:33:34.181Z,91.10
2017-03-30T03:34:33.513Z,91.10
2017-03-30T03:35:32.865Z,91.00
2017-03-30T03:36:32.499Z,90.90
2017-03-30T03:37:31.951Z,90.90
2017-03-30T03:38:32.107Z,91.10
2017-03-30T03:39:31.454Z,90.80
2017-03-30T03:40:30.810Z,90.80
2017-03-30T03:41:30.159Z,90.80
2017-03-30T03:42:30.283Z,90.90
2017-03-30T03:43:29.638Z,91.20
2017-03-30T03:44:29.002Z,90.90
2017-03-30T03:45:28.308Z,90.90
2017-03-30T03:46:27.585Z,91.00
2017-03-30T03:47:26.918Z,91.10
2017-03-30T03:48:26.787Z,91.10
2017-03-30T03:49:26.190Z,91.10
2017-03-30T03:50:25.518Z,91.10
2017-03-30T03:51:24.915Z,91.10
2017-03-30T03:52:24.362Z,91.20
2017-03-30T03:53:23.739Z,91.20
2017-03-30T03:54:29.628Z,91.20
2017-03-30T03:55:28.925Z,91.30
2017-03-30T03:56:28.239Z,91.30
2017-03-30T03:57:27.635Z,91.70
2017-03-30T03:58:26.958Z,91.30
2017-03-30T03:59:26.413Z,91.40
2017-03-30T04:00:25.895Z,91.40
2017-03-30T04:01:25.295Z,91.60
2017-03-30T04:02:24.670Z,91.60
2017-03-30T04:03:24.017Z,91.60
2017-03-30T04:04:23.405Z,91.60
2017-03-30T04:05:23.495Z,91.60
2017-03-30T04:06:23.232Z,91.60
2017-03-30T04:07:22.566Z,91.60
2017-03-30T04:08:21.940Z,91.60
2017-03-30T04:09:21.315Z,91.50
2017-03-30T04:10:20.658Z,91.50
2017-03-30T04:11:20.026Z,91.40
2017-03-30T04:12:19.408Z,91.50
2017-03-30T04:13:18.785Z,91.50
2017-03-30T04:14:18.133Z,91.50
2017-03-30T04:15:17.541Z,91.50
2017-03-30T04:16:16.889Z,91.40
2017-03-30T04:17:16.229Z,91.40
2017-03-30T04:18:15.912Z,91.50
2017-03-30T04:19:15.249Z,91.50
2017-03-30T04:20:14.663Z,91.50
2017-03-30T04:21:13.987Z,91.50
2017-03-30T04:22:13.335Z,91.50
2017-03-30T04:23:12.686Z,91.50
2017-03-30T04:24:12.037Z,91.50
2017-03-30T04:25:11.454Z,91.50
2017-03-30T04:26:10.785Z,91.60
2017-03-30T04:27:10.227Z,91.70
2017-03-30T04:28:10.415Z,91.70
2017-03-30T04:29:09.726Z,91.80
2017-03-30T04:30:09.343Z,91.70
2017-03-30T04:31:08.681Z,91.70
2017-03-30T04:32:08.020Z,91.70
2017-03-30T04:33:07.533Z,91.80
2017-03-30T04:34:06.949Z,91.80
2017-03-30T04:35:06.322Z,91.90
2017-03-30T04:36:06.085Z,91.80
2017-03-30T04:37:05.459Z,92.00
2017-03-30T04:38:04.816Z,92.00
2017-03-30T04:39:04.406Z,92.00
2017-03-30T04:40:03.799Z,92.00
2017-03-30T04:41:03.192Z,92.10
2017-03-30T04:42:02.621Z,92.10
2017-03-30T04:43:02.041Z,92.20
2017-03-30T04:44:01.317Z,92.10
2017-03-30T04:45:00.703Z,92.10
2017-03-30T04:46:00.097Z,92.10
2017-03-30T04:46:59.481Z,92.40
2017-03-30T04:47:59.077Z,92.10
2017-03-30T04:48:58.552Z,92.10
2017-03-30T04:49:57.892Z,92.10
2017-03-30T04:50:57.176Z,92.10
2017-03-30T04:51:57.268Z,92.10
2017-03-30T04:52:57.385Z,92.10
2017-03-30T04:53:56.779Z,92.10
2017-03-30T04:54:56.147Z,92.10
2017-03-30T04:55:55.513Z,92.20
2017-03-30T04:56:55.023Z,92.20
2017-03-30T04:57:54.467Z,92.20
2017-03-30T04:58:53.822Z,92.10
2017-03-30T04:59:53.430Z,92.00
2017-03-30T05:00:52.737Z,91.90
2017-03-30T05:01:52.045Z,91.80
2017-03-30T05:02:51.408Z,91.80
2017-03-30T05:03:50.817Z,91.70
2017-03-30T05:04:50.197Z,91.60
2017-03-30T05:05:49.570Z,91.50
2017-03-30T05:06:49.013Z,91.50
2017-03-30T05:07:48.383Z,91.40
2017-03-30T05:08:47.735Z,91.40
2017-03-30T05:09:47.101Z,91.40
2017-03-30T05:10:46.619Z,91.20
2017-03-30T05:11:46.190Z,91.10
2017-03-30T05:12:45.540Z,90.80
2017-03-30T05:13:44.970Z,90.60
2017-03-30T05:14:44.326Z,90.60
2017-03-30T05:15:43.725Z,90.60
2017-03-30T05:16:43.015Z,90.70
2017-03-30T05:17:42.350Z,90.70
2017-03-30T05:18:41.654Z,90.40
2017-03-30T05:19:40.989Z,90.30
2017-03-30T05:20:40.278Z,90.20
2017-03-30T05:21:39.626Z,90.10
2017-03-30T05:22:38.948Z,90.10
2017-03-30T05:23:38.322Z,90.00
2017-03-30T05:24:37.820Z,89.90
2017-03-30T05:25:37.153Z,89.40
2017-03-30T05:26:36.461Z,88.80
2017-03-30T05:27:35.872Z,88.60
2017-03-30T05:28:35.198Z,88.30
2017-03-30T05:29:34.829Z,88.10
2017-03-30T05:30:34.207Z,87.80
2017-03-30T05:31:34.273Z,87.60
2017-03-30T05:32:33.634Z,87.40
2017-03-30T05:33:32.989Z,86.80
2017-03-30T05:34:32.333Z,86.20
2017-03-30T05:35:31.727Z,86.10
2017-03-30T05:36:31.052Z,86.30
2017-03-30T05:37:30.355Z,86.00
2017-03-30T05:38:29.680Z,85.40
2017-03-30T05:39:29.067Z,84.60
2017-03-30T05:40:28.357Z,83.80
2017-03-30T05:41:27.822Z,83.80
2017-03-30T05:42:27.205Z,83.90
2017-03-30T05:43:26.568Z,83.40
2017-03-30T05:44:25.870Z,83.40
2017-03-30T05:45:25.292Z,84.10
2017-03-30T05:46:24.616Z,82.50
2017-03-30T05:47:24.022Z,81.60
2017-03-30T05:48:23.670Z,81.60
2017-03-30T05:49:23.087Z,82.00
2017-03-30T05:50:22.497Z,81.00
2017-03-30T05:51:21.835Z,80.90
2017-03-30T05:52:21.184Z,80.90
2017-03-30T05:53:20.865Z,80.40
2017-03-30T05:54:20.943Z,80.10
2017-03-30T05:55:20.348Z,79.20
2017-03-30T05:56:19.679Z,79.00
2017-03-30T05:57:19.052Z,79.80
2017-03-30T05:58:18.359Z,78.90
2017-03-30T05:59:17.731Z,78.50
2017-03-30T06:00:17.121Z,79.70
2017-03-30T06:01:17.219Z,78.10
2017-03-30T06:02:16.562Z,77.30
2017-03-30T06:03:15.965Z,78.40
2017-03-30T06:04:15.284Z,77.50
2017-03-30T06:05:14.864Z,78.20
2017-03-30T06:06:14.162Z,77.20
2017-03-30T06:07:14.270Z,76.60
2017-03-30T06:08:13.670Z,76.30
2017-03-30T06:09:12.957Z,75.30
2017-03-30T06:10:12.497Z,74.30
2017-03-30T06:11:12.637Z,73.50
2017-03-30T06:12:11.985Z,73.30
2017-03-30T06:13:11.768Z,72.80
2017-03-30T06:14:11.704Z,72.40
2017-03-30T06:15:11.004Z,72.40
2017-03-30T06:16:10.342Z,73.40
2017-03-30T06:17:09.947Z,71.90
2017-03-30T06:18:09.302Z,72.00
2017-03-30T06:19:08.658Z,71.10
2017-03-30T06:20:08.076Z,71.20
2017-03-30T06:21:07.425Z,70.50
2017-03-30T06:22:06.806Z,69.70
2017-03-30T06:23:06.150Z,69.70
2017-03-30T06:24:05.545Z,69.60
2017-03-30T06:25:04.947Z,69.20
2017-03-30T06:26:05.013Z,68.30
2017-03-30T06:27:04.336Z,68.40
2017-03-30T06:28:03.759Z,67.50
2017-03-30T06:29:03.284Z,66.70
2017-03-30T06:30:02.686Z,66.10
2017-03-30T06:31:02.014Z,66.40
2017-03-30T06:32:01.401Z,65.40
2017-03-30T06:33:00.718Z,65.70
2017-03-30T06:34:00.065Z,65.30
2017-03-30T06:34:59.452Z,64.30
2017-03-30T06:35:58.786Z,64.20
2017-03-30T06:36:58.850Z,63.60
2017-03-30T06:37:58.145Z,62.40
2017-03-30T06:38:57.489Z,62.80
2017-03-30T06:39:56.917Z,62.10
2017-03-30T06:40:56.589Z,62.30
2017-03-30T06:41:56.386Z,61.80
2017-03-30T06:42:55.740Z,61.30
2017-03-30T06:43:55.086Z,60.90
2017-03-30T06:44:54.445Z,61.50
2017-03-30T06:45:53.787Z,63.50
2017-03-30T06:46:53.139Z,60.90
2017-03-30T06:47:52.500Z,62.50
2017-03-30T06:48:51.872Z,61.60
2017-03-30T06:49:51.209Z,61.60
2017-03-30T06:50:51.046Z,61.30
2017-03-30T06:51:50.366Z,61.80
2017-03-30T06:52:49.734Z,61.70
2017-03-30T06:53:49.081Z,61.00
2017-03-30T06:54:48.439Z,61.40
2017-03-30T06:55:47.854Z,60.90
2017-03-30T06:56:47.289Z,61.60
2017-03-30T06:57:46.671Z,61.20
2017-03-30T06:58:46.032Z,60.80
2017-03-30T06:59:45.385Z,60.30
2017-03-30T07:00:44.744Z,60.70
2017-03-30T07:01:44.117Z,60.20
2017-03-30T07:02:43.489Z,60.00
2017-03-30T07:03:42.810Z,60.30
2017-03-30T07:04:42.392Z,60.30
2017-03-30T07:05:41.752Z,59.70
2017-03-30T07:06:41.076Z,59.90
2017-03-30T07:07:40.429Z,60.00
2017-03-30T07:08:39.758Z,59.40
2017-03-30T07:09:39.094Z,59.50
2017-03-30T07:10:38.501Z,59.60
2017-03-30T07:11:37.852Z,59.30
2017-03-30T07:12:37.181Z,59.60
2017-03-30T07:13:36.470Z,58.30
2017-03-30T07:14:35.802Z,58.20
2017-03-30T07:15:35.128Z,57.40
2017-03-30T07:16:34.750Z,57.30
2017-03-30T07:17:34.078Z,56.50
2017-03-30T07:18:33.415Z,54.70
2017-03-30T07:19:32.762Z,54.20
2017-03-30T07:20:32.090Z,52.70
2017-03-30T07:21:31.430Z,52.10
2017-03-30T07:22:30.745Z,51.50
2017-03-30T07:23:30.041Z,51.10
2017-03-30T07:24:29.331Z,51.10
2017-03-30T07:25:28.689Z,50.70
2017-03-30T07:26:28.013Z,51.60
2017-03-30T07:27:27.361Z,50.40
2017-03-30T07:28:27.299Z,50.20
2017-03-30T07:29:27.393Z,49.30
2017-03-30T07:30:26.760Z,49.10
2017-03-30T07:31:26.096Z,48.90
2017-03-30T07:32:25.416Z,48.00
2017-03-30T07:33:24.725Z,48.70
2017-03-30T07:34:24.117Z,48.70
2017-03-30T07:35:23.527Z,48.20
2017-03-30T07:36:22.876Z,48.10
2017-03-30T07:37:22.275Z,47.20
2017-03-30T07:38:21.653Z,47.10
2017-03-30T07:39:21.028Z,47.00
2017-03-30T07:40:20.423Z,46.90
2017-03-30T07:41:22.632Z,47.10
2017-03-30T07:42:22.787Z,46.90
2017-03-30T07:43:22.114Z,46.60
2017-03-30T07:44:21.484Z,46.90
2017-03-30T07:45:20.894Z,46.50
2017-03-30T07:46:20.253Z,46.30
2017-03-30T07:47:19.617Z,46.40
2017-03-30T07:48:19.369Z,46.50
2017-03-30T07:49:18.734Z,46.20
2017-03-30T07:50:18.135Z,46.20
2017-03-30T07:51:18.074Z,45.50
2017-03-30T07:52:17.421Z,45.20
2017-03-30T07:53:16.777Z,45.20
2017-03-30T07:54:16.154Z,45.30
2017-03-30T07:55:16.437Z,44.60
2017-03-30T07:56:15.810Z,44.10
2017-03-30T07:57:15.364Z,44.10
2017-03-30T07:58:14.699Z,43.90
2017-03-30T07:59:14.809Z,44.30
2017-03-30T08:00:14.255Z,43.90
2017-03-30T08:01:13.564Z,43.60
2017-03-30T08:02:12.907Z,43.70
2017-03-30T08:03:12.339Z,43.40
2017-03-30T08:04:11.723Z,43.30
2017-03-30T08:05:11.136Z,43.20
2017-03-30T08:06:10.536Z,43.40
2017-03-30T08:07:09.992Z,43.10
2017-03-30T08:08:09.486Z,42.40
2017-03-30T08:09:08.833Z,42.80
2017-03-30T08:10:08.202Z,42.10
2017-03-30T08:11:07.620Z,42.00
2017-03-30T08:12:07.033Z,41.80
2017-03-30T08:13:06.353Z,41.20
2017-03-30T08:14:05.780Z,41.20
2017-03-30T08:15:05.203Z,41.20
2017-03-30T08:16:05.586Z,41.00
2017-03-30T08:17:04.995Z,41.30
2017-03-30T08:18:04.383Z,40.90
2017-03-30T08:19:03.703Z,41.20
2017-03-30T08:20:03.163Z,41.40
2017-03-30T08:21:02.555Z,41.80
2017-03-30T08:22:01.955Z,41.70
2017-03-30T08:23:01.376Z,41.20
2017-03-30T08:24:00.741Z,40.80
2017-03-30T08:25:00.084Z,40.80
2017-03-30T08:25:59.442Z,40.60
2017-03-30T08:26:58.780Z,40.20
2017-03-30T08:27:58.173Z,39.70
2017-03-30T08:28:58.236Z,39.30
2017-03-30T08:29:58.362Z,38.90
2017-03-30T08:30:58.491Z,38.10
2017-03-30T08:31:57.915Z,38.50
2017-03-30T08:32:57.242Z,39.20
2017-03-30T08:33:56.617Z,38.70
2017-03-30T08:34:56.005Z,39.00
2017-03-30T08:35:55.360Z,38.50
2017-03-30T08:36:54.787Z,38.30
2017-03-30T08:37:54.176Z,38.30
2017-03-30T08:38:53.525Z,37.80
2017-03-30T08:39:52.903Z,37.90
2017-03-30T08:40:52.281Z,38.10
2017-03-30T08:41:52.047Z,38.50
2017-03-30T08:42:51.477Z,37.70
2017-03-30T08:43:50.809Z,37.80
2017-03-30T08:44:50.213Z,37.20
2017-03-30T08:45:49.594Z,37.10
2017-03-30T08:46:49.709Z,37.00
2017-03-30T08:47:49.123Z,37.00
2017-03-30T08:48:48.523Z,36.80
2017-03-30T08:49:50.935Z,37.10
2017-03-30T08:50:50.410Z,37.10
2017-03-30T08:51:50.637Z,37.50
2017-03-30T08:52:51.434Z,37.30
2017-03-30T08:53:51.140Z,37.50
2017-03-30T08:54:50.590Z,37.00
2017-03-30T08:55:50.327Z,35.80
2017-03-30T08:56:49.828Z,35.70
2017-03-30T08:57:49.317Z,35.30
2017-03-30T08:58:49.169Z,35.30
2017-03-30T08:59:48.724Z,35.20
2017-03-30T09:00:48.560Z,35.60
2017-03-30T09:01:47.943Z,35.20
2017-03-30T09:02:47.450Z,35.30
2017-03-30T09:03:46.889Z,34.80
2017-03-30T09:04:46.505Z,35.30
2017-03-30T09:05:45.829Z,35.00
2017-03-30T09:06:46.026Z,34.60
2017-03-30T09:07:45.689Z,34.20
2017-03-30T09:08:45.303Z,34.10
2017-03-30T09:09:44.849Z,33.60
2017-03-30T09:10:44.462Z,34.80
2017-03-30T09:11:43.826Z,33.50
2017-03-30T09:12:43.363Z,33.60
2017-03-30T09:13:42.847Z,33.10
2017-03-30T09:14:42.261Z,33.30
2017-03-30T09:15:41.628Z,33.00
2017-03-30T09:16:41.068Z,32.60
2017-03-30T09:17:40.478Z,32.90
2017-03-30T09:18:40.588Z,33.40
2017-03-30T09:19:39.935Z,33.50
2017-03-30T09:20:39.349Z,33.80
2017-03-30T09:21:38.692Z,34.00
2017-03-30T09:22:38.303Z,34.00
2017-03-30T09:23:37.674Z,33.60
2017-03-30T09:24:37.045Z,33.40
2017-03-30T09:25:36.502Z,33.30
2017-03-30T09:26:35.832Z,34.10
2017-03-30T09:27:35.266Z,34.00
2017-03-30T09:28:34.661Z,33.30
2017-03-30T09:29:34.035Z,33.40
2017-03-30T09:30:33.402Z,34.00
2017-03-30T09:31:33.558Z,32.30
2017-03-30T09:32:32.942Z,32.50
2017-03-30T09:33:32.263Z,31.80
2017-03-30T09:34:32.350Z,31.70
2017-03-30T09:35:31.688Z,31.80
2017-03-30T09:36:31.009Z,31.80
2017-03-30T09:37:30.354Z,31.10
2017-03-30T09:38:29.694Z,31.20
2017-03-30T09:39:29.055Z,31.60
2017-03-30T09:40:28.420Z,31.50
2017-03-30T09:41:27.734Z,32.30
2017-03-30T09:42:27.883Z,32.30
2017-03-30T09:43:27.367Z,31.10
2017-03-30T09:44:26.726Z,32.20
2017-03-30T09:45:26.082Z,31.60
2017-03-30T09:46:25.445Z,31.20
2017-03-30T09:47:25.085Z,31.40
2017-03-30T09:48:24.411Z,30.80
2017-03-30T09:49:23.794Z,31.10
2017-03-30T09:50:23.133Z,31.60
2017-03-30T09:51:22.461Z,31.70
2017-03-30T09:52:21.851Z,31.80
2017-03-30T09:53:21.267Z,32.00
2017-03-30T09:54:20.872Z,31.50
2017-03-30T09:55:20.195Z,31.40
2017-03-30T09:56:19.623Z,31.20
2017-03-30T09:57:18.915Z,30.70
2017-03-30T09:58:18.964Z,30.60
2017-03-30T09:59:18.272Z,30.30
2017-03-30T10:00:17.671Z,31.80
2017-03-30T10:01:17.036Z,30.90
2017-03-30T10:02:17.141Z,30.50
2017-03-30T10:03:16.502Z,30.40
2017-03-30T10:04:15.855Z,31.20
2017-03-30T10:05:15.263Z,31.20
2017-03-30T10:06:14.609Z,31.40
2017-03-30T10:07:14.015Z,31.20
2017-03-30T10:08:13.449Z,31.20
2017-03-30T10:09:12.786Z,31.00
2017-03-30T10:10:12.926Z,30.10
2017-03-30T10:11:12.374Z,30.70
2017-03-30T10:12:11.743Z,31.30
2017-03-30T10:13:11.121Z,31.60
2017-03-30T10:14:10.453Z,31.70
2017-03-30T10:15:09.812Z,32.90
2017-03-30T10:16:10.405Z,31.70
2017-03-30T10:17:09.694Z,32.20
2017-03-30T10:18:09.139Z,31.80
2017-03-30T10:19:08.553Z,31.80
2017-03-30T10:20:08.284Z,31.80
2017-03-30T10:21:07.645Z,31.60
2017-03-30T10:22:07.023Z,31.80
2017-03-30T10:23:06.350Z,31.00
2017-03-30T10:24:05.838Z,31.10
2017-03-30T10:25:05.215Z,30.80
2017-03-30T10:26:04.552Z,30.00
2017-03-30T10:27:03.879Z,30.30
2017-03-30T10:28:03.210Z,30.00
2017-03-30T10:29:02.606Z,29.80
2017-03-30T10:30:02.006Z,29.60
2017-03-30T10:31:01.364Z,29.60
2017-03-30T10:32:00.682Z,29.40
2017-03-30T10:33:00.020Z,29.80
2017-03-30T10:33:59.457Z,29.80
2017-03-30T10:34:58.793Z,30.30
2017-03-30T10:35:58.175Z,29.50
2017-03-30T10:36:57.496Z,29.00
2017-03-30T10:37:56.834Z,28.70
2017-03-30T10:38:56.170Z,28.80
2017-03-30T10:39:55.485Z,28.70
2017-03-30T10:40:54.814Z,28.90
2017-03-30T10:41:54.182Z,28.70
2017-03-30T10:42:53.565Z,28.70
2017-03-30T10:43:52.920Z,29.10
2017-03-30T10:44:52.299Z,28.70
2017-03-30T10:45:51.677Z,29.70
2017-03-30T10:46:51.032Z,29.60
2017-03-30T10:47:50.358Z,29.70
2017-03-30T10:49:58.769Z,30.70
2017-03-30T10:50:58.097Z,30.60
2017-03-30T10:51:57.433Z,31.10
2017-03-30T10:52:56.758Z,31.30
2017-03-30T10:53:56.074Z,31.70
2017-03-30T10:54:55.465Z,32.10
2017-03-30T10:55:54.816Z,32.60
2017-03-30T10:56:54.225Z,32.30
2017-03-30T10:57:53.533Z,32.40
2017-03-30T10:58:52.852Z,31.20
2017-03-30T10:59:52.928Z,31.50
2017-03-30T11:00:52.304Z,31.80
2017-03-30T11:01:51.741Z,31.30
2017-03-30T11:02:52.471Z,31.00
2017-03-30T11:03:51.798Z,30.00
2017-03-30T11:04:51.110Z,29.80
2017-03-30T11:05:51.277Z,29.50
2017-03-30T11:06:50.726Z,29.50
2017-03-30T11:07:50.067Z,28.90
2017-03-30T11:08:49.452Z,29.50
2017-03-30T11:09:48.783Z,30.00
2017-03-30T11:10:48.123Z,30.50
2017-03-30T11:11:47.489Z,30.00
2017-03-30T11:12:46.805Z,28.90
2017-03-30T11:13:46.137Z,28.60
2017-03-30T11:14:45.539Z,28.60
2017-03-30T11:15:44.937Z,28.60
2017-03-30T11:16:44.337Z,28.60
2017-03-30T11:17:43.632Z,28.90
2017-03-30T11:18:42.961Z,29.90
2017-03-30T11:19:42.243Z,29.40
2017-03-30T11:20:41.553Z,29.10
2017-03-30T11:21:40.958Z,29.30
2017-03-30T11:22:40.344Z,29.70
2017-03-30T11:23:39.699Z,30.10
2017-03-30T11:24:39.058Z,30.70
2017-03-30T11:25:38.390Z,30.50
2017-03-30T11:26:38.103Z,30.40
2017-03-30T11:27:37.434Z,30.30
2017-03-30T11:28:36.738Z,30.50
2017-03-30T11:29:36.091Z,30.40
2017-03-30T11:30:35.507Z,30.80
2017-03-30T11:31:34.877Z,31.20
2017-03-30T11:32:35.291Z,31.20
2017-03-30T11:33:34.657Z,31.00
2017-03-30T11:34:33.986Z,31.40
2017-03-30T11:35:33.318Z,32.00
2017-03-30T11:36:32.631Z,32.00
2017-03-30T11:37:31.968Z,32.00
2017-03-30T11:38:31.580Z,33.00
2017-03-30T11:39:30.960Z,32.20
2017-03-30T11:40:30.413Z,31.50
2017-03-30T11:41:29.897Z,30.60
2017-03-30T11:42:29.240Z,30.00
2017-03-30T11:43:28.608Z,29.40
2017-03-30T11:44:28.285Z,29.30
2017-03-30T11:45:27.642Z,28.90
2017-03-30T11:46:26.921Z,28.80
2017-03-30T11:47:26.937Z,28.70
2017-03-30T11:48:26.240Z,28.30
2017-03-30T11:49:25.558Z,28.40
2017-03-30T11:50:24.911Z,28.70
2017-03-30T11:51:24.247Z,28.60
2017-03-30T11:52:23.647Z,28.30
2017-03-30T11:53:23.008Z,28.40
2017-03-30T11:54:22.329Z,27.90
2017-03-30T11:55:21.691Z,27.80
2017-03-30T11:56:21.080Z,27.80
2017-03-30T11:57:20.409Z,28.10
2017-03-30T11:58:19.902Z,27.60
2017-03-30T11:59:19.294Z,27.30
2017-03-30T12:00:18.709Z,27.80
2017-03-30T12:01:18.134Z,27.80
2017-03-30T12:02:17.496Z,27.70
2017-03-30T12:03:18.201Z,28.00
2017-03-30T12:04:17.537Z,27.60
2017-03-30T12:05:16.895Z,27.60
2017-03-30T12:06:16.260Z,28.20
2017-03-30T12:07:15.590Z,28.10
2017-03-30T12:08:14.970Z,27.60
2017-03-30T12:09:15.097Z,27.50
2017-03-30T12:10:14.425Z,27.40
2017-03-30T12:11:13.769Z,27.70
2017-03-30T12:12:13.229Z,28.10
2017-03-30T12:13:12.561Z,27.20
2017-03-30T12:14:12.074Z,28.00
2017-03-30T12:15:11.417Z,27.60
2017-03-30T12:16:10.723Z,27.10
2017-03-30T12:17:10.084Z,27.20
2017-03-30T12:18:09.403Z,27.00
2017-03-30T12:19:11.615Z,27.10
2017-03-30T12:20:10.961Z,27.30
2017-03-30T12:21:10.349Z,28.00
2017-03-30T12:22:09.645Z,28.50
2017-03-30T12:23:09.012Z,27.80
2017-03-30T12:24:08.364Z,27.90
2017-03-30T12:25:07.742Z,27.30
2017-03-30T12:26:07.070Z,26.80
2017-03-30T12:27:06.425Z,26.60
2017-03-30T12:28:05.805Z,26.50
2017-03-30T12:29:05.234Z,27.10
2017-03-30T12:30:04.609Z,27.40
2017-03-30T12:31:03.942Z,27.60
2017-03-30T12:32:03.255Z,27.00
2017-03-30T12:33:02.609Z,27.60
2017-03-30T12:34:02.037Z,26.90
2017-03-30T12:35:01.429Z,27.30
2017-03-30T12:36:00.831Z,27.90
2017-03-30T12:37:00.182Z,28.10
2017-03-30T12:37:59.506Z,28.40
2017-03-30T12:38:58.873Z,29.00
2017-03-30T12:39:58.239Z,29.50
2017-03-30T12:40:57.613Z,30.50
2017-03-30T12:41:57.726Z,30.10
2017-03-30T12:42:57.121Z,31.10
2017-03-30T12:43:56.469Z,30.90
2017-03-30T12:44:55.817Z,30.90
2017-03-30T12:45:55.454Z,31.00
2017-03-30T12:46:55.554Z,31.20